Clearwater, FL (33767)

7:06 PM EDT on July 29, 2016 (GMT -0400)
North Clearwater Beach | | Change Station

Elev 7 ft 27.99 °N, 82.82 °W | Updated 46 seconds ago

Clear
Clear
87.4 °F
Feels Like 85 °F
N
0.0
Wind Variable Wind from SE
Gusts 0.0 mph

Today
High -- | Low -- °F
--% Chance of Precip.
Yesterday
High -- | Low -- °F
Precip. -- in
Pressure 30.02 in
Visibility 10.0 miles
Clouds Clear
Heat Index 85 °F
Dew Point 54 °F
Humidity 32%
Rainfall 0.00 in
Snow Depth Not available.
6:52 AM 8:22 PM
Waning Crescent, 18% visible
METAR KPIE 292253Z 23004KT 10SM CLR 30/23 A3002 RMK AO2 LTG DSNT E SLP165 T03000233
Pressure 30.02 in
Visibility 10.0 miles
Clouds Clear
Heat Index 85 °F
Dew Point 54 °F
Humidity 32%
Rainfall 0.00 in
Snow Depth Not available.
6:52 AM 8:22 PM
Waning Crescent, 18% visible
METAR KPIE 292253Z 23004KT 10SM CLR 30/23 A3002 RMK AO2 LTG DSNT E SLP165 T03000233

10-Day Weather Forecast

Almanac

Astronomy

Jul. 29, 2016 Rise Set
Actual Time
Civil Twilight
Nautical Twilight
Astronomical Twilight
Moon
Length of Visible Light
Length of Day
Tomorrow will be .
, % of the Moon is Illuminated

Today's Extremes

State Highs State Lows

Community

WunderPhotos

Upload Photos

1,928,437 photos uploaded!

WunderBlog® & News

Nearby

Air Quality

  Air Quality AQ Index Pollutant
Not available.

Snow Depth

Station Depth Elevation

Earthquake Activity

City Distance Mag. Time & Date
Minimum magnitude displayed is 2.5.

Coastal Water Temperatures

Place Temperature

Stations

Nearby Weather Stations

Station Location Temp. Windchill Dew Point Humidity Wind Precip. Elev Updated Type
                   

Watches & Warnings

There are currently no watches in effect.